createdAt,value
2018-12-06T00:02:20.459Z,60.50
2018-12-06T00:04:48.955Z,60.80
2018-12-06T00:07:17.518Z,60.20
2018-12-06T00:09:46.153Z,60.70
2018-12-06T00:12:14.918Z,60.80
2018-12-06T00:14:43.419Z,61.00
2018-12-06T00:17:11.935Z,62.00
2018-12-06T00:19:40.485Z,61.20
2018-12-06T00:22:08.981Z,61.00
2018-12-06T00:24:37.492Z,61.40
2018-12-06T00:27:06.167Z,60.90
2018-12-06T00:29:34.663Z,61.00
2018-12-06T00:32:03.174Z,61.00
2018-12-06T00:34:31.811Z,60.70
2018-12-06T00:37:00.460Z,61.20
2018-12-06T00:39:28.960Z,61.20
2018-12-06T00:41:57.519Z,61.20
2018-12-06T00:44:26.048Z,61.10
2018-12-06T00:46:54.541Z,61.40
2018-12-06T00:49:23.026Z,61.40
2018-12-06T00:51:51.534Z,62.20
2018-12-06T00:54:20.111Z,62.30
2018-12-06T00:56:48.611Z,62.70
2018-12-06T00:59:17.235Z,62.90
2018-12-06T01:01:45.830Z,63.40
2018-12-06T01:04:14.583Z,63.70
2018-12-06T01:06:43.100Z,63.70
2018-12-06T01:09:11.691Z,63.80
2018-12-06T01:11:40.406Z,63.60
2018-12-06T01:14:08.908Z,63.60
2018-12-06T01:16:37.399Z,63.20
2018-12-06T01:19:05.911Z,63.50
2018-12-06T01:21:34.419Z,63.30
2018-12-06T01:24:02.951Z,63.50
2018-12-06T01:26:31.479Z,63.60
2018-12-06T01:29:00.106Z,63.30
2018-12-06T01:31:28.755Z,63.10
2018-12-06T01:33:57.299Z,63.00
2018-12-06T01:36:25.798Z,62.80
2018-12-06T01:38:54.455Z,62.80
2018-12-06T01:41:22.947Z,62.70
2018-12-06T01:43:51.579Z,62.60
2018-12-06T01:46:20.359Z,62.30
2018-12-06T01:48:48.856Z,62.00
2018-12-06T01:51:17.343Z,62.20
2018-12-06T01:53:45.839Z,61.70
2018-12-06T01:56:14.336Z,61.70
2018-12-06T01:58:42.834Z,61.50
2018-12-06T02:01:11.363Z,61.50
2018-12-06T02:03:39.915Z,61.30
2018-12-06T02:06:08.405Z,61.50
2018-12-06T02:08:37.048Z,61.30
2018-12-06T02:11:05.560Z,61.30
2018-12-06T02:13:34.179Z,61.20
2018-12-06T02:16:02.806Z,61.20
2018-12-06T02:18:31.443Z,61.30
2018-12-06T02:20:59.999Z,61.40
2018-12-06T02:23:28.743Z,61.20
2018-12-06T02:25:57.259Z,61.60
2018-12-06T02:28:26.080Z,61.70
2018-12-06T02:30:54.575Z,61.80
2018-12-06T02:33:23.106Z,61.70
2018-12-06T02:35:51.620Z,61.70
2018-12-06T02:38:20.252Z,61.70
2018-12-06T02:40:48.743Z,61.70
2018-12-06T02:43:17.548Z,61.70
2018-12-06T02:45:46.059Z,61.80
2018-12-06T02:48:14.555Z,61.70
2018-12-06T02:50:43.154Z,61.70
2018-12-06T02:53:38.171Z,61.40
2018-12-06T02:56:06.683Z,61.50
2018-12-06T02:58:35.209Z,61.00
2018-12-06T03:01:03.893Z,60.80
2018-12-06T03:03:32.416Z,60.70
2018-12-06T03:06:01.060Z,60.60
2018-12-06T03:08:29.575Z,60.50
2018-12-06T03:10:58.143Z,60.30
2018-12-06T03:13:26.666Z,60.30
2018-12-06T03:15:55.211Z,60.10
2018-12-06T03:18:23.727Z,60.00
2018-12-06T03:20:52.251Z,60.00
2018-12-06T03:23:20.867Z,60.00
2018-12-06T03:25:49.357Z,59.90
2018-12-06T03:28:17.889Z,59.80
2018-12-06T03:30:46.401Z,59.60
2018-12-06T03:33:14.905Z,59.60
2018-12-06T03:35:43.580Z,59.60
2018-12-06T03:38:12.136Z,59.50
2018-12-06T03:40:40.722Z,59.50
2018-12-06T03:43:09.400Z,59.40
2018-12-06T03:45:37.912Z,59.40
2018-12-06T03:48:06.420Z,59.40
2018-12-06T03:50:35.055Z,59.40
2018-12-06T03:53:03.567Z,59.40
2018-12-06T03:55:32.233Z,59.40
2018-12-06T03:58:00.731Z,59.40
2018-12-06T04:00:29.232Z,59.60
2018-12-06T04:02:57.746Z,59.60
2018-12-06T04:05:26.251Z,59.80
2018-12-06T04:07:54.788Z,60.40
2018-12-06T04:10:23.288Z,60.80
2018-12-06T04:12:52.035Z,61.10
2018-12-06T04:15:20.543Z,62.00
2018-12-06T04:17:49.028Z,60.70
2018-12-06T04:20:17.651Z,60.80
2018-12-06T04:22:46.144Z,60.80
2018-12-06T04:25:14.756Z,61.50
2018-12-06T04:27:43.434Z,61.80
2018-12-06T04:30:11.987Z,61.90
2018-12-06T04:32:40.476Z,61.80
2018-12-06T04:35:09.011Z,62.00
2018-12-06T04:37:37.511Z,61.80
2018-12-06T04:40:06.147Z,61.60
2018-12-06T04:42:34.642Z,61.60
2018-12-06T04:45:03.440Z,61.60
2018-12-06T04:47:32.047Z,61.50
2018-12-06T04:50:00.551Z,61.30
2018-12-06T04:52:29.044Z,61.20
2018-12-06T04:54:57.563Z,61.20
2018-12-06T04:57:26.052Z,61.00
2018-12-06T04:59:54.647Z,60.90
2018-12-06T05:02:23.311Z,60.80
2018-12-06T05:04:51.888Z,60.70
2018-12-06T05:07:20.383Z,60.70
2018-12-06T05:09:48.863Z,60.60
2018-12-06T05:12:17.375Z,60.50
2018-12-06T05:14:45.954Z,60.60
2018-12-06T05:17:14.567Z,60.30
2018-12-06T05:19:43.325Z,60.50
2018-12-06T05:22:11.819Z,60.40
2018-12-06T05:24:40.319Z,60.20
2018-12-06T05:27:08.947Z,60.10
2018-12-06T05:29:37.441Z,60.00
2018-12-06T05:32:06.076Z,60.00
2018-12-06T05:34:34.741Z,59.80
2018-12-06T05:37:03.247Z,59.80
2018-12-06T05:39:31.752Z,59.90
2018-12-06T05:42:00.227Z,59.90
2018-12-06T05:44:28.723Z,59.90
2018-12-06T05:46:57.217Z,60.00
2018-12-06T05:49:25.955Z,59.90
2018-12-06T05:51:54.483Z,59.90
2018-12-06T05:54:22.975Z,59.90
2018-12-06T05:56:51.614Z,60.00
2018-12-06T05:59:20.116Z,59.90
2018-12-06T06:01:48.623Z,60.10
2018-12-06T06:04:17.123Z,60.00
2018-12-06T06:06:45.943Z,60.00
2018-12-06T06:09:14.559Z,60.00
2018-12-06T06:11:43.055Z,60.00
2018-12-06T06:14:11.549Z,60.00
2018-12-06T06:16:40.063Z,60.00
2018-12-06T06:19:08.711Z,60.10
2018-12-06T06:21:37.215Z,60.20
2018-12-06T06:24:05.707Z,60.10
2018-12-06T06:26:34.335Z,60.00
2018-12-06T06:29:02.943Z,60.00
2018-12-06T06:31:31.423Z,60.00
2018-12-06T06:33:59.936Z,59.80
2018-12-06T06:36:28.742Z,59.80
2018-12-06T06:38:57.244Z,59.80
2018-12-06T06:41:25.779Z,60.00
2018-12-06T06:43:54.267Z,59.80
2018-12-06T06:46:22.760Z,59.60
2018-12-06T06:48:51.491Z,59.60
2018-12-06T06:51:19.987Z,59.60
2018-12-06T06:53:48.496Z,59.50
2018-12-06T06:56:16.991Z,59.40
2018-12-06T06:58:45.515Z,59.30
2018-12-06T07:01:14.021Z,59.60
2018-12-06T07:03:42.507Z,59.20
2018-12-06T07:06:11.047Z,59.30
2018-12-06T07:08:39.557Z,59.40
2018-12-06T07:11:08.083Z,59.40
2018-12-06T07:13:36.591Z,59.60
2018-12-06T07:16:05.123Z,59.50
2018-12-06T07:18:33.611Z,59.60
2018-12-06T07:21:02.159Z,59.60
2018-12-06T07:23:30.655Z,59.60
2018-12-06T07:25:59.187Z,59.50
2018-12-06T07:28:27.999Z,59.50
2018-12-06T07:30:56.655Z,59.60
2018-12-06T07:33:25.163Z,59.60
2018-12-06T07:35:53.704Z,59.60
2018-12-06T07:38:22.377Z,59.60
2018-12-06T07:40:50.895Z,59.60
2018-12-06T07:43:19.386Z,59.60
2018-12-06T07:45:47.921Z,60.40
2018-12-06T07:48:16.430Z,59.60
2018-12-06T07:50:44.911Z,59.70
2018-12-06T07:53:13.537Z,59.60
2018-12-06T07:55:42.029Z,59.60
2018-12-06T07:58:10.559Z,59.50
2018-12-06T08:00:39.076Z,59.40
2018-12-06T08:03:07.570Z,59.30
2018-12-06T08:05:36.084Z,59.30
2018-12-06T08:08:04.753Z,59.30
2018-12-06T08:10:33.378Z,59.30
2018-12-06T08:13:01.894Z,59.20
2018-12-06T08:15:30.531Z,59.10
2018-12-06T08:17:59.032Z,59.10
2018-12-06T08:20:27.651Z,59.10
2018-12-06T08:22:56.154Z,59.20
2018-12-06T08:25:24.815Z,59.00
2018-12-06T08:27:53.319Z,59.00
2018-12-06T08:30:21.853Z,58.90
2018-12-06T08:32:50.378Z,59.10
2018-12-06T08:35:19.066Z,59.10
2018-12-06T08:37:47.575Z,59.10
2018-12-06T08:40:16.078Z,59.00
2018-12-06T08:42:45.894Z,59.00
2018-12-06T08:45:14.727Z,59.10
2018-12-06T08:47:43.223Z,59.00
2018-12-06T08:50:12.083Z,59.20
2018-12-06T08:52:40.583Z,59.20
2018-12-06T08:55:09.103Z,59.30
2018-12-06T08:57:37.591Z,59.40
2018-12-06T09:00:09.231Z,59.40
2018-12-06T09:02:37.847Z,59.40
2018-12-06T09:05:07.272Z,59.50
2018-12-06T09:07:36.469Z,59.60
2018-12-06T09:10:06.399Z,59.80
2018-12-06T09:12:35.047Z,59.70
2018-12-06T09:15:04.015Z,59.80
2018-12-06T09:17:32.535Z,59.80
2018-12-06T09:20:01.018Z,59.70
2018-12-06T09:22:29.511Z,59.70
2018-12-06T09:24:58.070Z,59.70
2018-12-06T09:27:26.663Z,59.70
2018-12-06T09:29:55.347Z,59.70
2018-12-06T09:32:23.847Z,60.30
2018-12-06T09:34:52.343Z,59.60
2018-12-06T09:37:20.851Z,59.70
2018-12-06T09:39:57.183Z,59.60
2018-12-06T09:42:25.840Z,59.50
2018-12-06T09:44:54.511Z,59.50
2018-12-06T09:47:23.185Z,59.50
2018-12-06T09:49:51.708Z,59.50
2018-12-06T09:52:20.241Z,59.60
2018-12-06T09:54:48.774Z,59.60
2018-12-06T09:57:17.277Z,59.70
2018-12-06T09:59:46.913Z,59.70
2018-12-06T10:02:15.830Z,59.80
2018-12-06T10:04:44.471Z,60.00
2018-12-06T10:07:12.980Z,60.20
2018-12-06T10:09:41.488Z,60.10
2018-12-06T10:12:09.991Z,60.30
2018-12-06T10:14:38.544Z,60.50
2018-12-06T10:17:07.035Z,61.30
2018-12-06T10:19:35.538Z,61.10
2018-12-06T10:22:04.079Z,61.40
2018-12-06T10:24:32.732Z,61.40
2018-12-06T10:27:01.227Z,62.50
2018-12-06T10:29:29.731Z,62.00
2018-12-06T10:31:58.431Z,62.00
2018-12-06T10:34:26.928Z,62.20
2018-12-06T10:36:55.501Z,62.50
2018-12-06T10:39:24.131Z,62.40
2018-12-06T10:41:52.631Z,62.60
2018-12-06T10:44:28.863Z,62.40
2018-12-06T10:46:57.404Z,62.50
2018-12-06T10:49:26.171Z,62.70
2018-12-06T10:51:54.936Z,62.90
2018-12-06T10:54:23.481Z,64.00
2018-12-06T10:56:52.031Z,63.30
2018-12-06T11:01:45.639Z,63.30
2018-12-06T11:04:14.143Z,63.50
2018-12-06T11:06:42.649Z,63.90
2018-12-06T11:09:11.275Z,63.80
2018-12-06T11:11:39.788Z,64.20
2018-12-06T11:14:08.292Z,64.50
2018-12-06T11:16:36.791Z,64.90
2018-12-06T11:19:05.308Z,65.20
2018-12-06T11:21:33.935Z,65.40
2018-12-06T11:24:02.458Z,65.50
2018-12-06T11:26:31.088Z,65.30
2018-12-06T11:28:59.625Z,64.80
2018-12-06T11:31:28.120Z,65.00
2018-12-06T11:33:56.768Z,64.80
2018-12-06T11:36:25.278Z,64.80
2018-12-06T11:38:53.770Z,64.50
2018-12-06T11:41:22.273Z,64.00
2018-12-06T11:43:50.937Z,64.40
2018-12-06T11:46:19.455Z,64.40
2018-12-06T11:48:47.939Z,64.30
2018-12-06T11:51:16.477Z,64.50
2018-12-06T11:53:45.143Z,64.70
2018-12-06T11:56:13.655Z,65.00
2018-12-06T11:58:42.144Z,65.30
2018-12-06T12:01:10.687Z,65.30
2018-12-06T12:03:40.448Z,65.30
2018-12-06T12:06:09.118Z,65.40
2018-12-06T12:08:37.867Z,65.40
2018-12-06T12:11:06.543Z,65.40
2018-12-06T12:13:35.222Z,65.40
2018-12-06T12:16:03.795Z,65.80
2018-12-06T12:18:32.300Z,65.90
2018-12-06T12:21:00.803Z,66.00
2018-12-06T12:23:29.531Z,65.90
2018-12-06T12:25:58.060Z,65.90
2018-12-06T12:28:26.599Z,65.90
2018-12-06T12:30:55.086Z,66.10
2018-12-06T12:33:23.715Z,66.00
2018-12-06T12:35:52.217Z,66.10
2018-12-06T12:38:20.712Z,66.30
2018-12-06T12:40:49.513Z,66.40
2018-12-06T12:43:18.004Z,66.20
2018-12-06T12:45:46.503Z,66.00
2018-12-06T12:48:15.028Z,66.10
2018-12-06T12:50:43.641Z,66.00
2018-12-06T12:53:12.331Z,66.50
2018-12-06T12:55:40.819Z,65.90
2018-12-06T12:58:09.367Z,65.90
2018-12-06T13:00:37.870Z,66.10
2018-12-06T13:03:06.403Z,66.10
2018-12-06T13:05:35.037Z,65.90
2018-12-06T13:08:03.551Z,65.80
2018-12-06T13:10:32.043Z,65.70
2018-12-06T13:13:01.749Z,65.60
2018-12-06T13:15:30.715Z,65.60
2018-12-06T13:17:59.240Z,65.50
2018-12-06T13:20:27.743Z,65.50
2018-12-06T13:22:56.247Z,65.30
2018-12-06T13:25:24.748Z,65.30
2018-12-06T13:27:53.238Z,65.20
2018-12-06T13:30:21.735Z,65.50
2018-12-06T13:32:50.247Z,65.60
2018-12-06T13:35:18.783Z,65.40
2018-12-06T13:37:47.393Z,66.10
2018-12-06T13:40:16.007Z,65.00
2018-12-06T13:42:44.515Z,65.20
2018-12-06T13:45:13.003Z,65.30
2018-12-06T13:47:44.463Z,65.30
2018-12-06T13:50:13.845Z,65.30
2018-12-06T13:52:45.509Z,65.30
2018-12-06T13:55:16.882Z,65.20
2018-12-06T13:57:47.615Z,65.20
2018-12-06T14:00:18.614Z,65.30
2018-12-06T14:02:51.369Z,65.50
2018-12-06T14:05:22.575Z,67.10
2018-12-06T14:07:53.759Z,67.80
2018-12-06T14:10:25.806Z,68.30
2018-12-06T14:12:56.816Z,68.30
2018-12-06T14:15:28.519Z,68.40
2018-12-06T14:17:57.113Z,68.50
2018-12-06T14:20:25.651Z,68.70
2018-12-06T14:22:54.147Z,68.60
2018-12-06T14:25:22.651Z,68.60
2018-12-06T14:27:51.167Z,68.70
2018-12-06T14:30:19.808Z,68.60
2018-12-06T14:32:48.404Z,68.90
2018-12-06T14:35:17.029Z,69.00
2018-12-06T14:37:45.575Z,68.90
2018-12-06T14:40:14.075Z,68.90
2018-12-06T14:42:44.155Z,69.20
2018-12-06T14:45:12.875Z,69.30
2018-12-06T14:47:41.376Z,69.50
2018-12-06T14:50:10.002Z,69.30
2018-12-06T14:52:38.511Z,69.20
2018-12-06T14:55:07.403Z,69.20
2018-12-06T14:57:36.074Z,68.90
2018-12-06T15:00:05.223Z,68.70
2018-12-06T15:02:33.844Z,68.50
2018-12-06T15:05:02.347Z,68.50
2018-12-06T15:07:30.875Z,68.70
2018-12-06T15:09:59.509Z,68.40
2018-12-06T15:12:28.012Z,68.30
2018-12-06T15:14:56.518Z,68.10
2018-12-06T15:17:25.015Z,67.90
2018-12-06T15:19:53.663Z,67.70
2018-12-06T15:22:22.385Z,67.60
2018-12-06T15:24:51.116Z,67.90
2018-12-06T15:27:19.851Z,68.10
2018-12-06T15:29:48.495Z,68.30
2018-12-06T15:32:17.917Z,68.70
2018-12-06T15:34:46.427Z,69.10
2018-12-06T15:37:14.939Z,69.10
2018-12-06T15:39:43.587Z,68.90
2018-12-06T15:42:12.235Z,68.70
2018-12-06T15:44:40.723Z,68.60
2018-12-06T15:47:09.228Z,69.00
2018-12-06T15:49:37.718Z,69.20
2018-12-06T15:52:06.215Z,68.30
2018-12-06T15:54:34.718Z,68.20
2018-12-06T15:57:04.000Z,68.10
2018-12-06T15:59:32.492Z,67.90
2018-12-06T16:02:01.011Z,67.80
2018-12-06T16:04:29.528Z,67.80
2018-12-06T16:06:58.027Z,67.60
2018-12-06T16:09:26.647Z,67.40
2018-12-06T16:11:55.155Z,67.20
2018-12-06T16:14:23.780Z,66.90
2018-12-06T16:16:52.280Z,67.00
2018-12-06T16:19:20.932Z,66.80
2018-12-06T16:21:49.443Z,66.70
2018-12-06T16:24:17.952Z,66.50
2018-12-06T16:26:46.450Z,66.40
2018-12-06T16:29:14.949Z,66.20
2018-12-06T16:31:43.558Z,66.00
2018-12-06T16:34:12.287Z,65.80
2018-12-06T16:36:40.787Z,65.60
2018-12-06T16:39:09.295Z,65.40
2018-12-06T16:41:37.921Z,65.30
2018-12-06T16:44:06.580Z,65.20
2018-12-06T16:46:35.356Z,65.20
2018-12-06T16:49:10.104Z,65.10
2018-12-06T16:51:34.714Z,65.10
2018-12-06T16:54:03.228Z,65.00
2018-12-06T16:56:31.732Z,64.80
2018-12-06T16:59:00.390Z,64.70
2018-12-06T17:01:28.875Z,64.70
2018-12-06T17:03:57.375Z,64.50
2018-12-06T17:06:25.854Z,64.50
2018-12-06T17:08:54.365Z,64.40
2018-12-06T17:11:22.975Z,64.20
2018-12-06T17:13:51.467Z,64.20
2018-12-06T17:16:19.967Z,64.10
2018-12-06T17:18:48.479Z,63.90
2018-12-06T17:21:17.075Z,63.90
2018-12-06T17:23:45.586Z,63.90
2018-12-06T17:26:14.216Z,63.80
2018-12-06T17:28:42.707Z,63.80
2018-12-06T17:31:11.203Z,63.70
2018-12-06T17:33:39.710Z,63.50
2018-12-06T17:36:08.427Z,63.50
2018-12-06T17:38:36.915Z,63.30
2018-12-06T17:41:05.728Z,63.30
2018-12-06T17:43:34.227Z,63.20
2018-12-06T17:46:02.731Z,63.00
2018-12-06T17:48:31.366Z,63.00
2018-12-06T17:50:59.938Z,62.90
2018-12-06T17:53:28.435Z,62.90
2018-12-06T17:55:57.191Z,62.70
2018-12-06T17:58:25.695Z,62.50
2018-12-06T18:00:54.220Z,62.30
2018-12-06T18:03:22.727Z,62.30
2018-12-06T18:05:51.219Z,62.20
2018-12-06T18:08:19.763Z,62.10
2018-12-06T18:10:48.514Z,62.00
2018-12-06T18:13:17.020Z,61.90
2018-12-06T18:15:45.855Z,61.90
2018-12-06T18:18:14.367Z,61.80
2018-12-06T18:20:43.011Z,61.60
2018-12-06T18:23:11.819Z,61.70
2018-12-06T18:25:40.317Z,61.70
2018-12-06T18:28:08.971Z,61.70
2018-12-06T18:30:37.607Z,61.80
2018-12-06T18:33:06.103Z,61.70
2018-12-06T18:35:34.602Z,61.80
2018-12-06T18:38:03.124Z,61.70
2018-12-06T18:40:31.607Z,61.60
2018-12-06T18:43:00.112Z,61.70
2018-12-06T18:45:28.639Z,61.70
2018-12-06T18:47:57.278Z,61.70
2018-12-06T18:50:25.810Z,61.70
2018-12-06T18:52:54.307Z,61.60
2018-12-06T18:55:22.991Z,61.60
2018-12-06T18:57:51.609Z,61.80
2018-12-06T19:00:20.143Z,61.80
2018-12-06T19:02:48.643Z,61.80
2018-12-06T19:05:17.143Z,61.70
2018-12-06T19:07:45.712Z,61.70
2018-12-06T19:10:14.450Z,61.80
2018-12-06T19:12:43.104Z,61.70
2018-12-06T19:15:11.616Z,61.80
2018-12-06T19:17:40.135Z,61.80
2018-12-06T19:20:08.799Z,61.80
2018-12-06T19:22:37.353Z,61.80
2018-12-06T19:25:06.172Z,61.90
2018-12-06T19:27:34.716Z,62.00
2018-12-06T19:30:03.583Z,62.10
2018-12-06T19:32:32.099Z,61.80
2018-12-06T19:35:00.615Z,61.70
2018-12-06T19:37:30.706Z,61.70
2018-12-06T19:39:59.367Z,61.80
2018-12-06T19:42:28.886Z,61.70
2018-12-06T19:44:57.387Z,61.80
2018-12-06T19:47:25.891Z,61.60
2018-12-06T19:49:54.389Z,61.70
2018-12-06T19:52:23.191Z,61.70
2018-12-06T19:54:51.696Z,61.10
2018-12-06T19:57:20.215Z,61.60
2018-12-06T19:59:48.707Z,61.60
2018-12-06T20:02:17.251Z,61.60
2018-12-06T20:04:45.747Z,61.40
2018-12-06T20:07:14.257Z,61.70
2018-12-06T20:09:42.815Z,61.90
2018-12-06T20:12:12.240Z,62.10
2018-12-06T20:14:41.159Z,62.00
2018-12-06T20:17:09.939Z,62.00
2018-12-06T20:19:38.430Z,61.90
2018-12-06T20:22:08.287Z,61.80
2018-12-06T20:24:37.237Z,61.70
2018-12-06T20:27:05.883Z,61.70
2018-12-06T20:29:34.424Z,61.80
2018-12-06T20:32:02.939Z,61.70
2018-12-06T20:34:32.640Z,61.60
2018-12-06T20:37:01.355Z,61.60
2018-12-06T20:39:29.852Z,61.70
2018-12-06T20:41:58.363Z,62.10
2018-12-06T20:44:26.871Z,62.10
2018-12-06T20:46:55.612Z,62.70
2018-12-06T20:49:24.143Z,63.10
2018-12-06T20:51:52.769Z,63.00
2018-12-06T20:54:21.267Z,62.90
2018-12-06T20:56:49.835Z,63.10
2018-12-06T20:59:18.367Z,63.10
2018-12-06T21:01:46.875Z,64.10
2018-12-06T21:04:15.379Z,63.30
2018-12-06T21:06:43.963Z,63.30
2018-12-06T21:09:12.453Z,63.30
2018-12-06T21:11:40.956Z,63.30
2018-12-06T21:14:09.519Z,63.60
2018-12-06T21:16:38.011Z,63.70
2018-12-06T21:19:06.645Z,63.60
2018-12-06T21:21:35.136Z,63.90
2018-12-06T21:24:03.657Z,63.70
2018-12-06T21:26:32.140Z,63.70
2018-12-06T21:29:00.659Z,63.50
2018-12-06T21:34:09.180Z,63.40
2018-12-06T21:36:37.779Z,63.20
2018-12-06T21:39:08.459Z,63.30
2018-12-06T21:41:37.086Z,63.10
2018-12-06T21:44:05.709Z,63.50
2018-12-06T21:46:34.337Z,63.20
2018-12-06T21:49:02.978Z,63.30
2018-12-06T21:51:31.624Z,63.10
2018-12-06T21:54:00.168Z,63.80
2018-12-06T21:56:28.755Z,62.70
2018-12-06T21:58:57.440Z,62.60
2018-12-06T22:01:26.919Z,62.70
2018-12-06T22:03:55.561Z,62.70
2018-12-06T22:06:24.171Z,62.60
2018-12-06T22:08:52.961Z,62.60
2018-12-06T22:11:21.493Z,62.70
2018-12-06T22:13:50.031Z,62.70
2018-12-06T22:16:18.659Z,62.70
2018-12-06T22:18:48.270Z,62.50
2018-12-06T22:21:17.800Z,62.80
2018-12-06T22:23:46.352Z,62.80
2018-12-06T22:26:14.895Z,62.80
2018-12-06T22:28:43.507Z,63.00
2018-12-06T22:31:12.066Z,63.20
2018-12-06T22:33:40.658Z,63.30
2018-12-06T22:36:09.205Z,63.50
2018-12-06T22:38:37.755Z,63.60
2018-12-06T22:41:06.342Z,63.60
2018-12-06T22:43:34.903Z,63.70
2018-12-06T22:46:03.608Z,63.70
2018-12-06T22:48:32.235Z,64.00
2018-12-06T22:51:00.879Z,64.10
2018-12-06T22:53:30.515Z,64.00
2018-12-06T22:55:59.078Z,64.30
2018-12-06T22:58:27.668Z,64.30
2018-12-06T23:00:58.983Z,64.30
2018-12-06T23:03:27.850Z,64.30
2018-12-06T23:05:56.484Z,64.40
2018-12-06T23:08:25.361Z,64.60
2018-12-06T23:10:53.931Z,64.50
2018-12-06T23:13:22.489Z,64.70
2018-12-06T23:15:51.056Z,64.80
2018-12-06T23:18:19.583Z,64.90
2018-12-06T23:20:48.167Z,64.90
2018-12-06T23:23:16.907Z,64.90
2018-12-06T23:25:45.587Z,65.00
2018-12-06T23:28:14.166Z,64.60
2018-12-06T23:30:42.881Z,64.50
2018-12-06T23:33:11.432Z,64.30
2018-12-06T23:35:40.027Z,64.20
2018-12-06T23:38:08.731Z,64.40
2018-12-06T23:40:37.315Z,64.50
2018-12-06T23:43:05.975Z,64.70
2018-12-06T23:45:34.707Z,64.70
2018-12-06T23:48:03.413Z,64.80
2018-12-06T23:50:31.984Z,64.80
2018-12-06T23:53:00.576Z,64.80
2018-12-06T23:55:29.647Z,64.90
2018-12-06T23:57:58.280Z,65.20
